Lincoln Airport
KLNK : now visible

Airfield :











YOU CAN JOIN US ON...

 
LOGIN :

Register | Disclaimer

   EN    FR    IT 

 









Legend :    VFR   Marginal VFR   IFR   Intensive IFR   Very Intensive IFR
Visi :
Ceiling :
>= 8 km
>= 3000ft
5 to 8 km
1000 to 3000 ft
1500m to 5 km
500 to 1000 ft
800 to 1500m
200 to 500 ft
< 800m
< 200 ft
Symbols :   Thunderstorms  Fog  Heavy snow  Heavy precipitations  Wind > 20 kt






- Airport Elevation : 1219 ft
- IATA code : LNK


KLNK - Lincoln

CURRENT METAR :
  • 260754Z AUTO 21004KT 5SM BR OVC003 00/M01 A2999 RMK AO2 SLP166 T00001011

EXPIRED METARs :
  • 260654Z AUTO 21005KT 6SM BR OVC004 00/M01 A2999 RMK AO2 SLP169 T00001011
  • 260646Z AUTO 22006KT 6SM BR OVC004 00/M02 A3000 RMK AO2 T00001017
  • 260554Z AUTO 21006KT 7SM OVC006 00/M01 A3001 RMK AO2 SLP174 T00001011 10000 21006 400001100 58003

TAF KLNK
Valid from the 26 at 06:00 until the 27 at 06:00 UTC


260529Z 2606/2706 24003KT 6SM BR OVC006
FM260800 25004KT 1SM BR OVC004
FM261400 30004KT 4SM BR BKN008
FM261600 28006KT P6SM SCT090
FM270000 27004KT P6SM BKN120



MET'MAP, your aeronautical weather chart ! - Copyright ORBIFLY December 2007 - Disclaimer

ORBIFLY MET'MAP TEAM :

Programming & Development : Alexandra Zaïnal
Concept & original design : Baudouin d'Aumeries
Assistance for programming : Marc-Olivier Méhu
Technical & hardware support : Manuel Goepfert

Contact : metmap@orbifly.com




SOURCES & CREDITS :

   NOAA       Earth
Advisory